Time;durP1;ratioP1;P1;durP2;ratioP2;P2;SDS_P1;SDS_P2;PMS_P1;PMS_P2;Temp;Humidity;BMP_temperature;BMP_pressure;BME280_temperature;BME280_humidity;BME280_pressure;Samples;Min_cycle;Max_cycle;Signal;HPM_P1;HPM_P2
2023/04/21 00:01:58;;;;;;;17.77;6.65;;;;;;;;;;5036948;28;20087;-69
2023/04/21 00:04:24;;;;;;;12.02;6.05;;;;;;;;;;5035641;28;20041;-69
2023/04/21 00:06:51;;;;;;;14.52;6.60;;;;;;;;;;5035208;28;20049;-69
2023/04/21 00:09:17;;;;;;;12.13;6.95;;;;;;;;;;5036747;28;20052;-69
2023/04/21 00:11:42;;;;;;;14.10;7.07;;;;;;;;;;5035476;28;20030;-69
2023/04/21 00:14:08;;;;;;;15.05;6.57;;;;;;;;;;5035061;28;20037;-68
2023/04/21 00:16:33;;;;;;;12.52;6.53;;;;;;;;;;5035255;28;20095;-69
2023/04/21 00:18:59;;;;;;;14.35;6.97;;;;;;;;;;5035985;28;20120;-69
2023/04/21 00:21:24;;;;;;;13.35;6.45;;;;;;;;;;5035968;28;20021;-68
2023/04/21 00:23:49;;;;;;;16.58;7.20;;;;;;;;;;5036555;28;20025;-68
2023/04/21 00:26:15;;;;;;;15.20;7.18;;;;;;;;;;5036276;28;20036;-69
2023/04/21 00:28:40;;;;;;;15.13;6.68;;;;;;;;;;5035133;28;20060;-69
2023/04/21 00:31:05;;;;;;;14.73;7.28;;;;;;;;;;5035953;28;20029;-68
2023/04/21 00:33:31;;;;;;;14.10;7.22;;;;;;;;;;5044270;28;20084;-68
2023/04/21 00:35:58;;;;;;;13.50;6.72;;;;;;;;;;5042850;28;20466;-68
2023/04/21 00:38:23;;;;;;;13.32;6.63;;;;;;;;;;5037579;28;20034;-68
2023/04/21 00:40:48;;;;;;;15.55;6.72;;;;;;;;;;5035160;28;20032;-69
2023/04/21 00:43:14;;;;;;;13.48;6.47;;;;;;;;;;5036278;28;20906;-68
2023/04/21 00:45:39;;;;;;;16.17;7.53;;;;;;;;;;5034812;28;20026;-68
2023/04/21 00:48:05;;;;;;;13.77;7.28;;;;;;;;;;5035396;28;20020;-69
2023/04/21 00:50:32;;;;;;;15.80;7.38;;;;;;;;;;5036141;28;20048;-69
2023/04/21 00:52:57;;;;;;;12.23;6.45;;;;;;;;;;5034414;28;20465;-68
2023/04/21 00:55:23;;;;;;;13.07;7.22;;;;;;;;;;5035205;28;20525;-68
2023/04/21 00:57:50;;;;;;;16.30;6.95;;;;;;;;;;5036132;28;20034;-69
2023/04/21 01:00:16;;;;;;;19.42;7.00;;;;;;;;;;5036451;28;20550;-69
2023/04/21 01:02:44;;;;;;;14.57;7.25;;;;;;;;;;5035994;28;20025;-69
2023/04/21 01:05:10;;;;;;;13.02;6.68;;;;;;;;;;5038626;28;20028;-69
2023/04/21 01:07:36;;;;;;;12.23;6.45;;;;;;;;;;5055038;28;20044;-69
2023/04/21 01:10:02;;;;;;;15.07;7.05;;;;;;;;;;5034318;28;20524;-68
2023/04/21 01:12:28;;;;;;;13.00;6.70;;;;;;;;;;5037339;28;20032;-68
2023/04/21 01:14:54;;;;;;;13.73;6.22;;;;;;;;;;5040260;28;20041;-68
2023/04/21 01:17:19;;;;;;;13.65;7.05;;;;;;;;;;5037030;28;20025;-69
2023/04/21 01:19:45;;;;;;;15.88;7.40;;;;;;;;;;5036784;28;20082;-69
2023/04/21 01:22:12;;;;;;;14.55;6.97;;;;;;;;;;5034695;28;20556;-69
2023/04/21 01:24:46;;;;;;;13.00;6.82;;;;;;;;;;5033138;28;20494;-68
2023/04/21 01:27:20;;;;;;;16.15;7.28;;;;;;;;;;5034646;28;20112;-69
2023/04/21 01:29:48;;;;;;;13.75;7.07;;;;;;;;;;5039720;28;20033;-68
2023/04/21 01:32:19;;;;;;;14.40;6.88;;;;;;;;;;5039487;28;20541;-69
2023/04/21 01:34:45;;;;;;;14.80;7.00;;;;;;;;;;5067525;28;20102;-68
2023/04/21 01:37:13;;;;;;;14.20;7.47;;;;;;;;;;5039453;28;20036;-68
2023/04/21 01:39:40;;;;;;;18.38;7.13;;;;;;;;;;5037747;28;20489;-69
2023/04/21 01:42:06;;;;;;;13.80;7.15;;;;;;;;;;5040429;28;20043;-69
2023/04/21 01:44:31;;;;;;;20.17;7.68;;;;;;;;;;5069784;28;20669;-69
2023/04/21 01:46:57;;;;;;;15.20;7.55;;;;;;;;;;5038317;28;20037;-69
2023/04/21 01:49:22;;;;;;;13.95;6.85;;;;;;;;;;5039420;28;20025;-69
2023/04/21 01:51:48;;;;;;;14.20;7.28;;;;;;;;;;5038455;28;20061;-68
2023/04/21 01:54:13;;;;;;;15.35;7.45;;;;;;;;;;5042180;28;20078;-68
2023/04/21 01:56:39;;;;;;;16.65;7.40;;;;;;;;;;5048692;28;20045;-68
2023/04/21 01:59:04;;;;;;;18.75;7.88;;;;;;;;;;5041773;28;20029;-69
2023/04/21 02:01:30;;;;;;;17.25;7.85;;;;;;;;;;5040232;28;20051;-69
2023/04/21 02:03:55;;;;;;;18.70;7.93;;;;;;;;;;5039073;28;20040;-68
2023/04/21 02:06:20;;;;;;;16.50;7.60;;;;;;;;;;5041026;28;20389;-68
2023/04/21 02:08:46;;;;;;;18.98;8.40;;;;;;;;;;5071927;28;20079;-69
2023/04/21 02:11:11;;;;;;;15.27;7.57;;;;;;;;;;5036844;28;20041;-68
2023/04/21 02:13:36;;;;;;;16.02;8.10;;;;;;;;;;5039558;28;20036;-68
2023/04/21 02:16:02;;;;;;;17.63;8.40;;;;;;;;;;5040800;28;20033;-68
2023/04/21 02:18:28;;;;;;;19.85;8.10;;;;;;;;;;5038142;28;20083;-68
2023/04/21 02:20:55;;;;;;;15.88;7.60;;;;;;;;;;5038059;28;20029;-69
2023/04/21 02:23:20;;;;;;;20.25;8.95;;;;;;;;;;5038179;28;20028;-69
2023/04/21 02:25:46;;;;;;;18.40;7.95;;;;;;;;;;5038245;28;20091;-69
2023/04/21 02:28:11;;;;;;;17.88;7.63;;;;;;;;;;5069492;28;20069;-69
2023/04/21 02:30:36;;;;;;;19.63;9.13;;;;;;;;;;5070504;28;20032;-68
2023/04/21 02:33:02;;;;;;;20.15;8.80;;;;;;;;;;5038274;28;20026;-68
2023/04/21 02:35:27;;;;;;;17.63;8.23;;;;;;;;;;5040585;28;20037;-68
2023/04/21 02:37:52;;;;;;;20.48;8.75;;;;;;;;;;5042973;28;20031;-68
2023/04/21 02:40:18;;;;;;;19.83;8.60;;;;;;;;;;5041213;28;20059;-69
2023/04/21 02:42:43;;;;;;;18.73;9.32;;;;;;;;;;5037497;28;20503;-68
2023/04/21 02:45:10;;;;;;;18.67;7.88;;;;;;;;;;5035327;28;20028;-68
2023/04/21 02:47:35;;;;;;;19.48;8.30;;;;;;;;;;5039048;28;20025;-69
2023/04/21 02:50:01;;;;;;;23.15;9.48;;;;;;;;;;5037158;28;20544;-69
2023/04/21 02:52:26;;;;;;;21.52;9.85;;;;;;;;;;5037829;28;20037;-68
2023/04/21 02:54:52;;;;;;;20.45;9.63;;;;;;;;;;5038598;28;20120;-68
2023/04/21 02:57:17;;;;;;;23.45;9.55;;;;;;;;;;5042039;28;20029;-69
2023/04/21 02:59:42;;;;;;;22.52;9.50;;;;;;;;;;5037952;28;20571;-69
2023/04/21 03:02:08;;;;;;;22.42;9.68;;;;;;;;;;5036656;28;20391;-68
2023/04/21 03:04:33;;;;;;;23.15;10.20;;;;;;;;;;5041049;28;20452;-68
2023/04/21 03:06:58;;;;;;;22.98;10.07;;;;;;;;;;5037397;28;20076;-68
2023/04/21 03:09:24;;;;;;;24.75;10.98;;;;;;;;;;5069221;28;20032;-68
2023/04/21 03:11:49;;;;;;;24.05;11.77;;;;;;;;;;5038857;28;20021;-68
2023/04/21 03:14:14;;;;;;;24.77;10.52;;;;;;;;;;5036543;28;21080;-69
2023/04/21 03:16:40;;;;;;;26.65;10.82;;;;;;;;;;5036885;28;20651;-68
2023/04/21 03:19:05;;;;;;;27.25;11.25;;;;;;;;;;5050518;28;20032;-68
2023/04/21 03:21:30;;;;;;;25.33;10.98;;;;;;;;;;5040870;28;20029;-68
2023/04/21 03:23:56;;;;;;;22.90;10.38;;;;;;;;;;5040507;28;20017;-68
2023/04/21 03:26:21;;;;;;;23.05;10.30;;;;;;;;;;5039978;28;21080;-68
2023/04/21 03:28:47;;;;;;;27.10;11.15;;;;;;;;;;5042379;28;20045;-69
2023/04/21 03:31:12;;;;;;;25.45;11.50;;;;;;;;;;5035739;28;20026;-68
2023/04/21 03:33:37;;;;;;;27.60;11.40;;;;;;;;;;5037909;28;20100;-68
2023/04/21 03:36:03;;;;;;;26.77;12.07;;;;;;;;;;5037101;28;20582;-69
2023/04/21 03:38:28;;;;;;;28.23;11.88;;;;;;;;;;5038790;28;20515;-68
2023/04/21 03:40:54;;;;;;;26.55;10.18;;;;;;;;;;5038512;28;20508;-69
2023/04/21 03:43:19;;;;;;;29.83;12.85;;;;;;;;;;5036255;28;20029;-68
2023/04/21 03:45:45;;;;;;;27.23;11.20;;;;;;;;;;5036873;28;20162;-69
2023/04/21 03:48:10;;;;;;;29.10;12.48;;;;;;;;;;5038036;28;20025;-69
2023/04/21 03:50:37;;;;;;;29.52;12.57;;;;;;;;;;5035560;28;20453;-68
2023/04/21 03:53:02;;;;;;;29.65;11.85;;;;;;;;;;5038910;28;20044;-68
2023/04/21 03:55:28;;;;;;;30.65;11.93;;;;;;;;;;5040014;28;20033;-68
2023/04/21 03:57:53;;;;;;;30.58;12.90;;;;;;;;;;5034169;28;20063;-68
2023/04/21 04:00:19;;;;;;;30.23;12.40;;;;;;;;;;5037502;28;20604;-68
2023/04/21 04:02:45;;;;;;;31.15;11.98;;;;;;;;;;5038008;28;20036;-69
2023/04/21 04:05:10;;;;;;;28.55;12.75;;;;;;;;;;5037482;28;20029;-69
2023/04/21 04:07:36;;;;;;;32.70;12.45;;;;;;;;;;5034806;28;20021;-68
2023/04/21 04:10:01;;;;;;;30.77;13.07;;;;;;;;;;5036856;28;20549;-68
2023/04/21 04:12:26;;;;;;;31.88;12.15;;;;;;;;;;5036332;28;20777;-68
2023/04/21 04:14:52;;;;;;;27.13;11.77;;;;;;;;;;5067394;28;20046;-68
2023/04/21 04:17:17;;;;;;;30.33;13.70;;;;;;;;;;5035280;28;20920;-69
2023/04/21 04:19:42;;;;;;;31.13;12.30;;;;;;;;;;5034594;28;20025;-69
2023/04/21 04:22:08;;;;;;;31.90;12.38;;;;;;;;;;5037663;28;20029;-68
2023/04/21 04:24:34;;;;;;;33.60;13.20;;;;;;;;;;5040739;28;20614;-68
2023/04/21 04:27:01;;;;;;;31.42;13.50;;;;;;;;;;5034988;28;20112;-69
2023/04/21 04:29:27;;;;;;;32.72;12.43;;;;;;;;;;5035561;28;20406;-68
2023/04/21 04:31:52;;;;;;;28.55;12.27;;;;;;;;;;5035007;28;20502;-68
2023/04/21 04:34:18;;;;;;;35.05;13.95;;;;;;;;;;5036612;28;20037;-69
2023/04/21 04:36:44;;;;;;;32.55;13.60;;;;;;;;;;5036788;28;20111;-68
2023/04/21 04:39:11;;;;;;;28.00;12.77;;;;;;;;;;5036260;28;20056;-68
2023/04/21 04:41:37;;;;;;;30.55;12.75;;;;;;;;;;5040543;28;20100;-68
2023/04/21 04:44:04;;;;;;;39.85;14.35;;;;;;;;;;5038225;28;20387;-68
2023/04/21 04:46:30;;;;;;;29.13;13.25;;;;;;;;;;5066996;28;20029;-68
2023/04/21 04:48:55;;;;;;;36.72;14.15;;;;;;;;;;5037921;28;20037;-68
2023/04/21 04:51:22;;;;;;;31.02;13.18;;;;;;;;;;5035817;28;20017;-68
2023/04/21 04:53:47;;;;;;;35.75;13.85;;;;;;;;;;5036454;28;20017;-68
2023/04/21 04:56:12;;;;;;;33.45;13.63;;;;;;;;;;5033940;28;20709;-68
2023/04/21 04:58:38;;;;;;;31.83;13.05;;;;;;;;;;5039021;28;20028;-68
2023/04/21 05:01:11;;;;;;;33.25;13.43;;;;;;;;;;5034944;28;20029;-68
2023/04/21 05:03:36;;;;;;;36.40;14.48;;;;;;;;;;5035908;28;20021;-68
2023/04/21 05:06:02;;;;;;;29.98;13.40;;;;;;;;;;5034059;28;20018;-68
2023/04/21 05:08:27;;;;;;;32.22;13.70;;;;;;;;;;5034359;28;20040;-69
2023/04/21 05:10:52;;;;;;;34.75;14.10;;;;;;;;;;5037923;28;20039;-68
2023/04/21 05:13:18;;;;;;;30.60;13.40;;;;;;;;;;5036564;28;20098;-68
2023/04/21 05:15:43;;;;;;;33.10;13.23;;;;;;;;;;5038565;28;20036;-68
2023/04/21 05:18:08;;;;;;;34.03;13.68;;;;;;;;;;5034949;28;20075;-68
2023/04/21 05:20:34;;;;;;;29.73;12.65;;;;;;;;;;5035970;28;20106;-68
2023/04/21 05:22:59;;;;;;;29.40;12.90;;;;;;;;;;5032359;28;20080;-68
2023/04/21 05:25:24;;;;;;;34.65;14.80;;;;;;;;;;5039463;28;20522;-68
2023/04/21 05:27:50;;;;;;;34.65;13.38;;;;;;;;;;5034291;28;20029;-68
2023/04/21 05:30:15;;;;;;;35.08;13.98;;;;;;;;;;5034774;28;20485;-68
2023/04/21 05:32:40;;;;;;;27.02;12.68;;;;;;;;;;5035469;28;20029;-68
2023/04/21 05:35:06;;;;;;;30.35;13.48;;;;;;;;;;5035400;28;20029;-68
2023/04/21 05:37:32;;;;;;;32.03;13.18;;;;;;;;;;5036136;28;20155;-68
2023/04/21 05:39:57;;;;;;;32.95;13.23;;;;;;;;;;5044120;28;20061;-68
2023/04/21 05:42:22;;;;;;;36.17;14.45;;;;;;;;;;5045449;28;20108;-68
2023/04/21 05:44:48;;;;;;;34.33;14.65;;;;;;;;;;5043822;28;20024;-69
2023/04/21 05:47:13;;;;;;;32.13;13.45;;;;;;;;;;5030062;28;20137;-69
2023/04/21 05:49:38;;;;;;;32.83;13.43;;;;;;;;;;5040643;28;20417;-68
2023/04/21 05:52:04;;;;;;;30.85;12.75;;;;;;;;;;5040456;28;20076;-69
2023/04/21 05:54:29;;;;;;;28.23;11.80;;;;;;;;;;5025119;28;20029;-68
2023/04/21 05:56:55;;;;;;;37.55;14.10;;;;;;;;;;5042084;28;20061;-68
2023/04/21 05:59:21;;;;;;;26.52;11.40;;;;;;;;;;5037412;28;20071;-69
2023/04/21 06:01:46;;;;;;;30.25;13.98;;;;;;;;;;5047921;28;20041;-69
2023/04/21 06:04:12;;;;;;;28.48;11.82;;;;;;;;;;5049274;28;20037;-68
2023/04/21 06:06:37;;;;;;;34.35;13.23;;;;;;;;;;5041798;28;20036;-70
2023/04/21 06:09:02;;;;;;;29.55;11.65;;;;;;;;;;5041893;28;20134;-69
2023/04/21 06:11:28;;;;;;;32.90;13.18;;;;;;;;;;5045124;28;20099;-68
2023/04/21 06:13:57;;;;;;;29.50;13.20;;;;;;;;;;5045051;28;20555;-69
2023/04/21 06:16:22;;;;;;;31.40;13.23;;;;;;;;;;5045479;28;20071;-69
2023/04/21 06:18:47;;;;;;;30.65;12.90;;;;;;;;;;5044861;28;20056;-68
2023/04/21 06:21:13;;;;;;;35.00;13.57;;;;;;;;;;5047252;28;20021;-69
2023/04/21 06:23:38;;;;;;;30.95;13.50;;;;;;;;;;5048150;28;20119;-68
2023/04/21 06:26:05;;;;;;;31.08;13.45;;;;;;;;;;5031661;28;20132;-69
2023/04/21 06:28:32;;;;;;;33.03;13.85;;;;;;;;;;5029002;28;20029;-69
2023/04/21 06:30:58;;;;;;;29.45;12.45;;;;;;;;;;5028078;28;20037;-69
2023/04/21 06:33:25;;;;;;;26.42;11.15;;;;;;;;;;5028765;28;20021;-68
2023/04/21 06:35:51;;;;;;;30.27;12.50;;;;;;;;;;5029278;28;20026;-68
2023/04/21 06:38:16;;;;;;;31.02;11.63;;;;;;;;;;5038404;28;20037;-68
2023/04/21 06:40:41;;;;;;;28.63;12.25;;;;;;;;;;5046494;28;20041;-69
2023/04/21 06:43:07;;;;;;;31.17;12.93;;;;;;;;;;5046834;28;20025;-68
2023/04/21 06:45:33;;;;;;;31.77;12.85;;;;;;;;;;5041064;28;20021;-68
2023/04/21 06:47:58;;;;;;;27.80;12.32;;;;;;;;;;5048754;28;20398;-69
2023/04/21 06:50:23;;;;;;;29.00;12.50;;;;;;;;;;5044889;28;20204;-68
2023/04/21 06:52:49;;;;;;;29.70;13.60;;;;;;;;;;5027126;28;20041;-69
2023/04/21 06:55:14;;;;;;;33.03;13.77;;;;;;;;;;5028715;28;20037;-69
2023/04/21 06:57:40;;;;;;;29.45;12.57;;;;;;;;;;5028133;28;20025;-68
2023/04/21 07:00:06;;;;;;;31.25;13.27;;;;;;;;;;5047110;28;20102;-69
2023/04/21 07:02:31;;;;;;;31.60;11.15;;;;;;;;;;5048191;28;20064;-69
2023/04/21 07:04:56;;;;;;;24.38;10.82;;;;;;;;;;5046295;28;20037;-69
2023/04/21 07:07:22;;;;;;;25.60;12.48;;;;;;;;;;5047567;28;20084;-69
2023/04/21 07:09:47;;;;;;;27.23;11.70;;;;;;;;;;5047356;28;20355;-69
2023/04/21 07:12:13;;;;;;;27.55;13.05;;;;;;;;;;5048168;28;20025;-69
2023/04/21 07:14:38;;;;;;;27.40;11.50;;;;;;;;;;5047609;28;20428;-68
2023/04/21 07:17:04;;;;;;;23.52;10.48;;;;;;;;;;5046440;28;20064;-68
2023/04/21 07:19:29;;;;;;;26.02;11.95;;;;;;;;;;5047776;28;20029;-69
2023/04/21 07:21:55;;;;;;;26.08;11.52;;;;;;;;;;5047979;28;20040;-68
2023/04/21 07:24:20;;;;;;;23.48;10.68;;;;;;;;;;5046268;28;20032;-68
2023/04/21 07:26:45;;;;;;;32.22;11.43;;;;;;;;;;5053071;28;20116;-69
2023/04/21 07:29:11;;;;;;;26.92;11.43;;;;;;;;;;5051503;28;20804;-69
2023/04/21 07:31:36;;;;;;;26.15;11.90;;;;;;;;;;5047024;28;20463;-68
2023/04/21 07:34:01;;;;;;;29.45;11.63;;;;;;;;;;5037643;28;20035;-69
2023/04/21 07:36:27;;;;;;;24.42;11.27;;;;;;;;;;5037911;28;20116;-69
2023/04/21 07:38:53;;;;;;;28.73;11.65;;;;;;;;;;5038925;28;20021;-67
2023/04/21 07:41:18;;;;;;;26.77;10.27;;;;;;;;;;5036516;28;20645;-71
2023/04/21 07:43:44;;;;;;;26.90;10.88;;;;;;;;;;5040245;28;20043;-68
2023/04/21 07:46:11;;;;;;;23.00;10.45;;;;;;;;;;5033562;28;20036;-69
2023/04/21 07:48:38;;;;;;;28.58;11.68;;;;;;;;;;5040972;28;20469;-69
2023/04/21 07:51:04;;;;;;;27.63;12.32;;;;;;;;;;5043038;28;20044;-69
2023/04/21 07:53:30;;;;;;;31.60;12.15;;;;;;;;;;5042614;28;20136;-69
2023/04/21 07:55:55;;;;;;;24.35;10.80;;;;;;;;;;5046052;28;20033;-69
2023/04/21 07:58:21;;;;;;;30.25;10.95;;;;;;;;;;5039130;28;20026;-69
2023/04/21 08:00:46;;;;;;;27.50;11.30;;;;;;;;;;5043881;28;20051;-69
2023/04/21 08:03:12;;;;;;;29.73;11.00;;;;;;;;;;5045579;28;20020;-69
2023/04/21 08:05:37;;;;;;;29.25;11.27;;;;;;;;;;5041289;28;20053;-69
2023/04/21 08:08:03;;;;;;;27.05;11.70;;;;;;;;;;5042255;28;20549;-69
2023/04/21 08:10:28;;;;;;;23.92;10.95;;;;;;;;;;5042184;28;20037;-70
2023/04/21 08:12:54;;;;;;;25.42;11.40;;;;;;;;;;5043238;28;20041;-69
2023/04/21 08:15:19;;;;;;;19.83;9.80;;;;;;;;;;5042213;28;20080;-69
2023/04/21 08:17:45;;;;;;;26.00;10.82;;;;;;;;;;5040843;28;20098;-69
2023/04/21 08:20:11;;;;;;;22.92;11.02;;;;;;;;;;5034532;28;20087;-69
2023/04/21 08:22:36;;;;;;;26.52;10.50;;;;;;;;;;5038435;28;20107;-69
2023/04/21 08:25:02;;;;;;;19.13;9.15;;;;;;;;;;5045572;28;20557;-69
2023/04/21 08:27:28;;;;;;;23.17;10.18;;;;;;;;;;5046229;28;20043;-69
2023/04/21 08:29:53;;;;;;;25.30;11.35;;;;;;;;;;5041860;28;20390;-69
2023/04/21 08:32:22;;;;;;;21.85;10.00;;;;;;;;;;5039714;28;20029;-69
2023/04/21 08:34:50;;;;;;;25.08;10.38;;;;;;;;;;5039437;28;20029;-69
2023/04/21 08:37:17;;;;;;;23.80;9.95;;;;;;;;;;5036321;28;20033;-70
2023/04/21 08:39:42;;;;;;;23.17;10.20;;;;;;;;;;5041358;28;20037;-69
2023/04/21 08:42:08;;;;;;;25.38;10.32;;;;;;;;;;5040516;28;20027;-69
2023/04/21 08:44:33;;;;;;;20.15;9.48;;;;;;;;;;5041935;28;20119;-69
2023/04/21 08:47:02;;;;;;;20.08;9.60;;;;;;;;;;5045501;28;20536;-70
2023/04/21 08:49:30;;;;;;;23.80;10.55;;;;;;;;;;5047105;28;20041;-69
2023/04/21 08:51:55;;;;;;;21.70;10.10;;;;;;;;;;5039924;28;20037;-69
2023/04/21 08:54:21;;;;;;;25.35;10.55;;;;;;;;;;5038728;28;20027;-69
2023/04/21 08:56:49;;;;;;;23.15;9.30;;;;;;;;;;5035028;28;20048;-71
2023/04/21 08:59:15;;;;;;;25.13;10.50;;;;;;;;;;5038396;28;20610;-69
2023/04/21 09:02:06;;;;;;;25.02;10.65;;;;;;;;;;5037737;28;20026;-69
2023/04/21 09:04:31;;;;;;;20.58;9.93;;;;;;;;;;5050410;28;20409;-69
2023/04/21 09:06:56;;;;;;;23.13;9.80;;;;;;;;;;5040392;28;20529;-70
2023/04/21 09:09:22;;;;;;;29.27;9.93;;;;;;;;;;5041727;28;20033;-69
2023/04/21 09:12:00;;;;;;;18.88;9.63;;;;;;;;;;5042690;28;20545;-69
2023/04/21 09:14:32;;;;;;;18.85;9.23;;;;;;;;;;5032593;28;20092;-69
2023/04/21 09:16:59;;;;;;;20.13;9.38;;;;;;;;;;5041403;28;20052;-70
2023/04/21 09:19:33;;;;;;;21.27;10.10;;;;;;;;;;5039734;28;20137;-69
2023/04/21 09:21:59;;;;;;;18.27;8.95;;;;;;;;;;5036240;28;20428;-69
2023/04/21 09:24:25;;;;;;;23.60;9.95;;;;;;;;;;5041040;28;20120;-69
2023/04/21 09:26:52;;;;;;;18.23;8.95;;;;;;;;;;5040921;28;20112;-70
2023/04/21 09:29:18;;;;;;;22.40;9.88;;;;;;;;;;5045212;28;20033;-69
2023/04/21 09:31:43;;;;;;;18.60;9.50;;;;;;;;;;5041515;28;20036;-69
2023/04/21 09:34:26;;;;;;;18.98;9.23;;;;;;;;;;5043418;28;20116;-70
2023/04/21 09:37:00;;;;;;;17.77;9.40;;;;;;;;;;5042955;28;20039;-70
2023/04/21 09:39:27;;;;;;;17.00;8.60;;;;;;;;;;5043867;28;20025;-70
2023/04/21 09:41:52;;;;;;;17.40;8.65;;;;;;;;;;5043286;28;20021;-70
2023/04/21 09:44:18;;;;;;;19.00;8.60;;;;;;;;;;5041545;28;20044;-69
2023/04/21 09:46:47;;;;;;;18.20;8.55;;;;;;;;;;5040887;28;20557;-70
2023/04/21 09:49:15;;;;;;;18.25;9.18;;;;;;;;;;5036493;28;20037;-71
2023/04/21 09:51:42;;;;;;;17.40;8.77;;;;;;;;;;5040759;28;20045;-70
2023/04/21 09:54:15;;;;;;;19.23;9.10;;;;;;;;;;5043693;28;20024;-70
2023/04/21 09:56:42;;;;;;;16.52;8.60;;;;;;;;;;5046095;28;20751;-70
2023/04/21 09:59:15;;;;;;;16.45;8.48;;;;;;;;;;5042853;28;20036;-70
2023/04/21 10:01:40;;;;;;;21.00;9.57;;;;;;;;;;5047701;28;20124;-70
2023/04/21 10:04:06;;;;;;;16.65;8.45;;;;;;;;;;5046781;28;20524;-70
2023/04/21 10:06:31;;;;;;;15.90;8.27;;;;;;;;;;5048680;28;20029;-70
2023/04/21 10:08:58;;;;;;;19.10;9.25;;;;;;;;;;5048134;28;20027;-70
2023/04/21 10:11:23;;;;;;;18.52;8.15;;;;;;;;;;5050869;28;20045;-70
2023/04/21 10:13:49;;;;;;;20.15;8.95;;;;;;;;;;5052749;28;20124;-70
2023/04/21 10:16:17;;;;;;;16.85;8.93;;;;;;;;;;5047969;28;20124;-70
2023/04/21 10:18:44;;;;;;;16.02;8.30;;;;;;;;;;5046657;28;20118;-70
2023/04/21 10:21:11;;;;;;;19.40;8.80;;;;;;;;;;5047527;28;20116;-70
2023/04/21 10:24:06;;;;;;;15.13;7.53;;;;;;;;;;5051514;28;20036;-70
2023/04/21 10:26:34;;;;;;;18.52;8.73;;;;;;;;;;5018771;28;20425;-70
2023/04/21 10:29:01;;;;;;;14.80;8.02;;;;;;;;;;5027224;28;20033;-70
2023/04/21 10:31:33;;;;;;;16.83;8.27;;;;;;;;;;5038756;28;20048;-71
2023/04/21 10:34:05;;;;;;;12.77;7.05;;;;;;;;;;5047324;28;20037;-71
2023/04/21 10:36:30;;;;;;;17.08;8.70;;;;;;;;;;5042570;28;20139;-70
2023/04/21 10:39:00;;;;;;;17.20;8.02;;;;;;;;;;5046431;28;20159;-71
2023/04/21 10:41:27;;;;;;;14.80;8.38;;;;;;;;;;5044775;28;20067;-71
2023/04/21 10:43:53;;;;;;;16.92;8.10;;;;;;;;;;5047781;28;20516;-71
2023/04/21 10:46:51;;;;;;;15.80;8.05;;;;;;;;;;5045282;28;20132;-70
2023/04/21 10:49:28;;;;;;;15.93;8.13;;;;;;;;;;5037378;28;20536;-70
2023/04/21 10:52:03;;;;;;;16.55;8.15;;;;;;;;;;5045863;28;20048;-70
2023/04/21 10:54:46;;;;;;;14.63;7.90;;;;;;;;;;5046876;28;20048;-70
2023/04/21 10:57:13;;;;;;;14.70;8.13;;;;;;;;;;5048081;28;20032;-70
2023/04/21 10:59:39;;;;;;;17.35;8.05;;;;;;;;;;5047355;28;20041;-70
2023/04/21 11:02:09;;;;;;;14.48;7.28;;;;;;;;;;5046959;28;20048;-71
2023/04/21 11:04:34;;;;;;;13.30;6.75;;;;;;;;;;5047358;28;20084;-70
2023/04/21 11:07:08;;;;;;;12.40;6.80;;;;;;;;;;5043557;28;20060;-70
2023/04/21 11:09:35;;;;;;;11.43;6.68;;;;;;;;;;5046672;28;20029;-70
2023/04/21 11:12:03;;;;;;;10.85;6.75;;;;;;;;;;5047159;28;20033;-70
2023/04/21 11:14:29;;;;;;;13.55;7.28;;;;;;;;;;5046931;28;20106;-70
2023/04/21 11:16:55;;;;;;;23.17;7.75;;;;;;;;;;5045902;28;20037;-70
2023/04/21 11:19:24;;;;;;;14.60;7.00;;;;;;;;;;5047651;28;20043;-70
2023/04/21 11:21:51;;;;;;;12.50;7.20;;;;;;;;;;5046866;28;20421;-70
2023/04/21 11:24:17;;;;;;;10.98;5.78;;;;;;;;;;5042289;28;20029;-70
2023/04/21 11:26:42;;;;;;;11.27;6.30;;;;;;;;;;5039417;28;20189;-70
2023/04/21 11:29:10;;;;;;;11.40;6.10;;;;;;;;;;5045495;28;20067;-70
2023/04/21 11:31:37;;;;;;;12.70;6.75;;;;;;;;;;5043161;28;20037;-70
2023/04/21 11:34:05;;;;;;;11.88;6.88;;;;;;;;;;5047868;28;20417;-71
2023/04/21 11:36:38;;;;;;;13.18;7.05;;;;;;;;;;5046697;28;20021;-70
2023/04/21 11:39:12;;;;;;;10.48;6.55;;;;;;;;;;5079142;28;20028;-71
2023/04/21 11:41:40;;;;;;;13.05;7.45;;;;;;;;;;5045787;28;20116;-72
2023/04/21 11:44:06;;;;;;;13.38;6.97;;;;;;;;;;5044642;28;20083;-71
2023/04/21 11:46:32;;;;;;;12.05;6.38;;;;;;;;;;5044469;28;20060;-71
2023/04/21 11:49:01;;;;;;;11.90;6.75;;;;;;;;;;5039584;28;20132;-71
2023/04/21 11:51:32;;;;;;;10.63;6.35;;;;;;;;;;5046273;28;20029;-71
2023/04/21 11:53:58;;;;;;;10.55;6.25;;;;;;;;;;5047234;28;20025;-72
2023/04/21 11:56:24;;;;;;;12.32;6.68;;;;;;;;;;5046841;28;20419;-71
2023/04/21 11:58:51;;;;;;;10.82;6.40;;;;;;;;;;5046735;28;20098;-71
2023/04/21 12:01:17;;;;;;;11.38;6.40;;;;;;;;;;5045716;28;20037;-71
2023/04/21 12:03:53;;;;;;;17.17;7.40;;;;;;;;;;5040870;28;20112;-71
2023/04/21 12:06:27;;;;;;;13.00;7.05;;;;;;;;;;5045932;28;20064;-72
2023/04/21 12:08:59;;;;;;;12.40;6.65;;;;;;;;;;5046436;28;20536;-72
2023/04/21 12:11:27;;;;;;;11.98;6.30;;;;;;;;;;5041050;28;20045;-71
2023/04/21 12:13:52;;;;;;;10.55;6.43;;;;;;;;;;5047508;28;20075;-71
2023/04/21 12:16:19;;;;;;;13.43;6.80;;;;;;;;;;5044813;28;20052;-71
2023/04/21 12:18:47;;;;;;;11.85;6.95;;;;;;;;;;5043733;28;20040;-71
2023/04/21 12:21:15;;;;;;;12.45;6.63;;;;;;;;;;5044243;28;20036;-72
2023/04/21 12:23:40;;;;;;;12.70;7.13;;;;;;;;;;5043403;28;20117;-71
2023/04/21 12:26:06;;;;;;;10.90;6.20;;;;;;;;;;5043686;28;20891;-72
2023/04/21 12:28:31;;;;;;;11.73;6.20;;;;;;;;;;5046209;28;20041;-72
2023/04/21 12:30:56;;;;;;;10.77;6.43;;;;;;;;;;5046139;28;20036;-72
2023/04/21 12:33:22;;;;;;;9.77;5.82;;;;;;;;;;5046076;28;20614;-71
2023/04/21 12:35:47;;;;;;;7.55;4.80;;;;;;;;;;5046510;28;20029;-72
2023/04/21 12:38:12;;;;;;;10.93;5.75;;;;;;;;;;5046476;28;20510;-72
2023/04/21 12:40:38;;;;;;;8.70;6.03;;;;;;;;;;5044068;28;20064;-71
2023/04/21 12:43:03;;;;;;;9.63;5.40;;;;;;;;;;5044194;28;20028;-72
2023/04/21 12:45:30;;;;;;;10.50;5.22;;;;;;;;;;5045263;28;20040;-72
2023/04/21 12:47:57;;;;;;;13.65;7.20;;;;;;;;;;5047755;28;20025;-72
2023/04/21 12:50:26;;;;;;;9.95;6.03;;;;;;;;;;5045626;28;20048;-72
2023/04/21 12:55:19;;;;;;;10.75;5.72;;;;;;;;;;5063825;28;20461;-72
2023/04/21 12:58:07;;;;;;;10.40;5.60;;;;;;;;;;5046445;28;20048;-71
2023/04/21 13:03:14;;;;;;;13.15;5.95;;;;;;;;;;5032277;28;20017;-71
2023/04/21 13:05:43;;;;;;;11.13;6.25;;;;;;;;;;5037135;28;20072;-70
2023/04/21 13:08:09;;;;;;;11.27;6.95;;;;;;;;;;5038015;28;20033;-71
2023/04/21 13:10:35;;;;;;;13.38;6.60;;;;;;;;;;5038268;28;20040;-72
2023/04/21 13:13:00;;;;;;;15.75;6.70;;;;;;;;;;5044081;28;20090;-72
2023/04/21 13:15:26;;;;;;;10.73;6.47;;;;;;;;;;5058989;28;20454;-72
2023/04/21 13:17:51;;;;;;;11.88;6.28;;;;;;;;;;5044714;28;20027;-71
2023/04/21 13:20:17;;;;;;;12.90;6.32;;;;;;;;;;5043198;28;20037;-70
2023/04/21 13:22:43;;;;;;;13.40;5.85;;;;;;;;;;5040644;28;20087;-70
2023/04/21 13:25:09;;;;;;;11.70;5.43;;;;;;;;;;5044972;28;20028;-75
2023/04/21 13:27:37;;;;;;;10.85;6.28;;;;;;;;;;5045018;28;20021;-70
2023/04/21 13:30:05;;;;;;;8.10;4.88;;;;;;;;;;5059048;28;20032;-71
2023/04/21 13:32:30;;;;;;;10.10;5.57;;;;;;;;;;5048733;28;20541;-71
2023/04/21 13:34:56;;;;;;;10.60;5.70;;;;;;;;;;5049865;28;20094;-71
2023/04/21 13:37:22;;;;;;;9.18;5.25;;;;;;;;;;5047940;28;20037;-70
2023/04/21 13:39:47;;;;;;;7.38;4.75;;;;;;;;;;5046715;28;20032;-70
2023/04/21 13:42:13;;;;;;;7.78;4.78;;;;;;;;;;5049469;28;20107;-71
2023/04/21 13:44:38;;;;;;;8.60;4.80;;;;;;;;;;5049139;28;20510;-71
2023/04/21 13:47:04;;;;;;;8.73;4.80;;;;;;;;;;5049140;28;20047;-71
2023/04/21 13:49:29;;;;;;;9.23;4.97;;;;;;;;;;5048553;28;20032;-71
2023/04/21 13:51:55;;;;;;;6.97;4.75;;;;;;;;;;5047820;28;20679;-71
2023/04/21 13:54:20;;;;;;;8.50;4.70;;;;;;;;;;5048310;28;20055;-71
2023/04/21 13:56:45;;;;;;;7.20;4.63;;;;;;;;;;5049052;28;20036;-71
2023/04/21 13:59:13;;;;;;;8.68;4.38;;;;;;;;;;5045790;28;20050;-73
2023/04/21 14:01:39;;;;;;;6.18;4.15;;;;;;;;;;5047716;28;20068;-71
2023/04/21 14:04:05;;;;;;;6.88;4.50;;;;;;;;;;5048944;28;20060;-70
2023/04/21 14:06:31;;;;;;;6.32;4.55;;;;;;;;;;5049080;28;20417;-70
2023/04/21 14:08:57;;;;;;;6.22;4.43;;;;;;;;;;5046352;28;20102;-71
2023/04/21 14:11:23;;;;;;;7.05;4.53;;;;;;;;;;5048942;28;20509;-71
2023/04/21 14:13:48;;;;;;;6.20;4.28;;;;;;;;;;5051719;28;20476;-71
2023/04/21 14:16:13;;;;;;;6.75;4.90;;;;;;;;;;5049432;28;20052;-71
2023/04/21 14:18:43;;;;;;;6.50;4.53;;;;;;;;;;5049590;28;20052;-70
2023/04/21 14:21:09;;;;;;;7.20;5.03;;;;;;;;;;5047453;28;20532;-71
2023/04/21 14:23:35;;;;;;;10.50;6.30;;;;;;;;;;5048787;28;20047;-71
2023/04/21 14:26:00;;;;;;;7.95;5.50;;;;;;;;;;5045852;28;20742;-71
2023/04/21 14:28:26;;;;;;;9.30;4.82;;;;;;;;;;5046117;28;20098;-71